sensor_id;sensor_type;location;lat;lon;timestamp;noise_LAeq;noise_LA_min;noise_LA_max;noise_LA01;noise_LA95
69616;Laerm;56822;52.516;4.708;2023-08-20T00:00:09;36.32;33.91;38.55;;
69616;Laerm;56822;52.516;4.708;2023-08-20T00:00:20;38.34;35.85;41.08;;
69616;Laerm;56822;52.516;4.708;2023-08-20T00:00:31;39.97;37.86;42.53;;
69616;Laerm;56822;52.516;4.708;2023-08-20T00:00:41;40.93;37.52;52.65;;
69616;Laerm;56822;52.516;4.708;2023-08-20T00:00:53;41.61;38.89;44.92;;
69616;Laerm;56822;52.516;4.708;2023-08-20T00:01:04;44.00;40.34;47.06;;
69616;Laerm;56822;52.516;4.708;2023-08-20T00:01:14;43.61;37.75;48.58;;
69616;Laerm;56822;52.516;4.708;2023-08-20T00:01:28;40.61;37.08;44.28;;
69616;Laerm;56822;52.516;4.708;2023-08-20T00:01:38;39.65;36.10;42.50;;
69616;Laerm;56822;52.516;4.708;2023-08-20T00:01:49;36.22;33.44;41.55;;
69616;Laerm;56822;52.516;4.708;2023-08-20T00:02:02;36.30;31.94;40.75;;
69616;Laerm;56822;52.516;4.708;2023-08-20T00:02:13;37.54;34.57;40.90;;
69616;Laerm;56822;52.516;4.708;2023-08-20T00:02:25;38.73;36.61;41.47;;
69616;Laerm;56822;52.516;4.708;2023-08-20T00:02:38;40.07;36.21;45.07;;
69616;Laerm;56822;52.516;4.708;2023-08-20T00:02:51;38.79;35.53;41.78;;
69616;Laerm;56822;52.516;4.708;2023-08-20T00:03:11;40.98;37.91;45.31;;
69616;Laerm;56822;52.516;4.708;2023-08-20T00:03:23;38.80;36.07;42.47;;
69616;Laerm;56822;52.516;4.708;2023-08-20T00:03:33;39.58;35.66;43.54;;
69616;Laerm;56822;52.516;4.708;2023-08-20T00:03:44;37.20;34.12;41.62;;
69616;Laerm;56822;52.516;4.708;2023-08-20T00:03:56;38.38;34.43;42.29;;
69616;Laerm;56822;52.516;4.708;2023-08-20T00:04:07;38.12;34.30;42.44;;
69616;Laerm;56822;52.516;4.708;2023-08-20T00:04:17;40.11;35.28;43.41;;
69616;Laerm;56822;52.516;4.708;2023-08-20T00:04:27;40.83;38.75;43.50;;
69616;Laerm;56822;52.516;4.708;2023-08-20T00:04:38;40.40;36.63;42.63;;
69616;Laerm;56822;52.516;4.708;2023-08-20T00:04:49;38.06;35.09;41.35;;
69616;Laerm;56822;52.516;4.708;2023-08-20T00:05:01;38.86;36.08;43.00;;
69616;Laerm;56822;52.516;4.708;2023-08-20T00:05:14;38.98;35.88;42.64;;
69616;Laerm;56822;52.516;4.708;2023-08-20T00:05:24;38.38;35.79;40.57;;
69616;Laerm;56822;52.516;4.708;2023-08-20T00:05:35;41.04;38.80;43.30;;
69616;Laerm;56822;52.516;4.708;2023-08-20T00:05:45;41.81;39.10;45.33;;
69616;Laerm;56822;52.516;4.708;2023-08-20T00:05:55;41.09;37.90;44.55;;
69616;Laerm;56822;52.516;4.708;2023-08-20T00:06:06;39.10;36.06;41.98;;
69616;Laerm;56822;52.516;4.708;2023-08-20T00:06:17;38.32;35.82;40.89;;
69616;Laerm;56822;52.516;4.708;2023-08-20T00:06:27;37.87;35.28;41.99;;
69616;Laerm;56822;52.516;4.708;2023-08-20T00:06:37;36.82;33.58;39.58;;
69616;Laerm;56822;52.516;4.708;2023-08-20T00:06:48;36.27;33.37;38.97;;
69616;Laerm;56822;52.516;4.708;2023-08-20T00:06:58;38.65;35.47;42.55;;
69616;Laerm;56822;52.516;4.708;2023-08-20T00:07:08;40.38;37.38;43.49;;
69616;Laerm;56822;52.516;4.708;2023-08-20T00:07:19;41.22;38.87;43.44;;
69616;Laerm;56822;52.516;4.708;2023-08-20T00:07:32;40.51;38.23;42.86;;
69616;Laerm;56822;52.516;4.708;2023-08-20T00:07:42;38.71;36.01;41.52;;
69616;Laerm;56822;52.516;4.708;2023-08-20T00:07:53;40.11;35.93;45.96;;
69616;Laerm;56822;52.516;4.708;2023-08-20T00:08:04;42.75;38.22;57.89;;
69616;Laerm;56822;52.516;4.708;2023-08-20T00:08:14;48.90;36.90;63.55;;
69616;Laerm;56822;52.516;4.708;2023-08-20T00:08:24;39.41;37.29;41.90;;
69616;Laerm;56822;52.516;4.708;2023-08-20T00:08:35;41.22;34.93;55.72;;
69616;Laerm;56822;52.516;4.708;2023-08-20T00:08:46;40.85;35.14;52.75;;
69616;Laerm;56822;52.516;4.708;2023-08-20T00:08:56;41.20;33.79;53.36;;
69616;Laerm;56822;52.516;4.708;2023-08-20T00:09:06;38.94;34.43;52.81;;
69616;Laerm;56822;52.516;4.708;2023-08-20T00:09:18;41.80;36.04;51.85;;
69616;Laerm;56822;52.516;4.708;2023-08-20T00:09:28;42.45;37.20;55.17;;
69616;Laerm;56822;52.516;4.708;2023-08-20T00:09:40;46.66;36.53;60.78;;
69616;Laerm;56822;52.516;4.708;2023-08-20T00:09:50;42.15;33.70;56.30;;
69616;Laerm;56822;52.516;4.708;2023-08-20T00:10:01;38.62;33.21;51.00;;
69616;Laerm;56822;52.516;4.708;2023-08-20T00:10:13;37.94;33.92;44.44;;
69616;Laerm;56822;52.516;4.708;2023-08-20T00:10:23;38.68;36.07;44.83;;
69616;Laerm;56822;52.516;4.708;2023-08-20T00:10:33;38.09;35.75;42.29;;
69616;Laerm;56822;52.516;4.708;2023-08-20T00:10:43;37.82;35.49;40.75;;
69616;Laerm;56822;52.516;4.708;2023-08-20T00:10:54;35.08;32.75;38.98;;
69616;Laerm;56822;52.516;4.708;2023-08-20T00:11:04;33.07;31.01;37.24;;
69616;Laerm;56822;52.516;4.708;2023-08-20T00:11:15;34.20;32.08;36.86;;
69616;Laerm;56822;52.516;4.708;2023-08-20T00:11:26;37.51;34.63;41.44;;
69616;Laerm;56822;52.516;4.708;2023-08-20T00:11:37;38.54;36.27;40.89;;
69616;Laerm;56822;52.516;4.708;2023-08-20T00:11:47;38.80;36.02;41.26;;
69616;Laerm;56822;52.516;4.708;2023-08-20T00:11:57;38.31;36.38;40.20;;
69616;Laerm;56822;52.516;4.708;2023-08-20T00:12:07;38.46;36.04;40.60;;
69616;Laerm;56822;52.516;4.708;2023-08-20T00:12:18;41.37;37.60;44.29;;
69616;Laerm;56822;52.516;4.708;2023-08-20T00:12:28;38.70;36.42;41.02;;
69616;Laerm;56822;52.516;4.708;2023-08-20T00:12:38;37.85;35.67;41.17;;
69616;Laerm;56822;52.516;4.708;2023-08-20T00:12:49;37.97;35.58;40.22;;
69616;Laerm;56822;52.516;4.708;2023-08-20T00:12:59;36.76;33.96;39.96;;
69616;Laerm;56822;52.516;4.708;2023-08-20T00:13:09;37.57;34.93;39.84;;
69616;Laerm;56822;52.516;4.708;2023-08-20T00:13:20;38.23;34.91;40.87;;
69616;Laerm;56822;52.516;4.708;2023-08-20T00:13:30;39.45;35.42;43.46;;
69616;Laerm;56822;52.516;4.708;2023-08-20T00:13:40;37.59;35.18;40.79;;
69616;Laerm;56822;52.516;4.708;2023-08-20T00:13:51;38.05;35.35;40.64;;
69616;Laerm;56822;52.516;4.708;2023-08-20T00:14:01;37.50;35.38;41.91;;
69616;Laerm;56822;52.516;4.708;2023-08-20T00:14:14;37.85;35.78;39.70;;
69616;Laerm;56822;52.516;4.708;2023-08-20T00:14:51;38.69;36.36;43.99;;
69616;Laerm;56822;52.516;4.708;2023-08-20T00:14:58;39.69;35.77;44.16;;
69616;Laerm;56822;52.516;4.708;2023-08-20T00:15:14;38.14;35.25;41.29;;
69616;Laerm;56822;52.516;4.708;2023-08-20T00:15:25;38.28;34.85;41.52;;
69616;Laerm;56822;52.516;4.708;2023-08-20T00:15:37;35.49;33.46;37.70;;
69616;Laerm;56822;52.516;4.708;2023-08-20T00:15:48;35.85;33.81;38.00;;
69616;Laerm;56822;52.516;4.708;2023-08-20T00:15:59;38.20;34.77;42.94;;
69616;Laerm;56822;52.516;4.708;2023-08-20T00:16:09;40.16;37.20;44.50;;
69616;Laerm;56822;52.516;4.708;2023-08-20T00:16:20;38.44;35.72;40.56;;
69616;Laerm;56822;52.516;4.708;2023-08-20T00:16:30;39.50;36.11;42.54;;
69616;Laerm;56822;52.516;4.708;2023-08-20T00:16:41;39.44;36.63;43.20;;
69616;Laerm;56822;52.516;4.708;2023-08-20T00:16:51;38.15;34.79;44.24;;
69616;Laerm;56822;52.516;4.708;2023-08-20T00:17:01;37.92;35.35;40.26;;
69616;Laerm;56822;52.516;4.708;2023-08-20T00:17:12;39.13;36.58;41.65;;
69616;Laerm;56822;52.516;4.708;2023-08-20T00:17:22;39.97;37.26;42.48;;
69616;Laerm;56822;52.516;4.708;2023-08-20T00:17:35;38.86;36.68;41.37;;
69616;Laerm;56822;52.516;4.708;2023-08-20T00:17:45;37.77;34.19;41.72;;
69616;Laerm;56822;52.516;4.708;2023-08-20T00:17:57;37.03;34.29;39.09;;
69616;Laerm;56822;52.516;4.708;2023-08-20T00:18:07;38.43;35.43;40.96;;
69616;Laerm;56822;52.516;4.708;2023-08-20T00:18:18;35.15;32.84;37.45;;
69616;Laerm;56822;52.516;4.708;2023-08-20T00:18:28;35.86;33.30;39.06;;
69616;Laerm;56822;52.516;4.708;2023-08-20T00:18:39;35.79;33.50;38.60;;
69616;Laerm;56822;52.516;4.708;2023-08-20T00:18:49;35.07;32.98;37.72;;
69616;Laerm;56822;52.516;4.708;2023-08-20T00:19:00;36.95;33.76;40.20;;
69616;Laerm;56822;52.516;4.708;2023-08-20T00:19:10;38.04;35.74;40.79;;
69616;Laerm;56822;52.516;4.708;2023-08-20T00:19:23;38.80;35.28;42.58;;
69616;Laerm;56822;52.516;4.708;2023-08-20T00:19:34;37.82;35.30;40.90;;
69616;Laerm;56822;52.516;4.708;2023-08-20T00:19:44;39.43;35.91;43.69;;
69616;Laerm;56822;52.516;4.708;2023-08-20T00:19:55;37.01;34.89;39.61;;
69616;Laerm;56822;52.516;4.708;2023-08-20T00:20:06;39.60;35.39;43.37;;
69616;Laerm;56822;52.516;4.708;2023-08-20T00:20:22;39.67;36.08;43.88;;
69616;Laerm;56822;52.516;4.708;2023-08-20T00:20:33;39.29;35.37;42.89;;
69616;Laerm;56822;52.516;4.708;2023-08-20T00:20:43;38.73;36.51;40.57;;
69616;Laerm;56822;52.516;4.708;2023-08-20T00:20:55;37.78;35.06;41.25;;
69616;Laerm;56822;52.516;4.708;2023-08-20T00:21:06;37.39;35.45;39.61;;
69616;Laerm;56822;52.516;4.708;2023-08-20T00:21:17;39.93;36.20;43.44;;
69616;Laerm;56822;52.516;4.708;2023-08-20T00:21:27;40.94;37.71;43.78;;
69616;Laerm;56822;52.516;4.708;2023-08-20T00:21:41;40.72;38.38;43.88;;
69616;Laerm;56822;52.516;4.708;2023-08-20T00:21:52;40.13;36.63;43.56;;
69616;Laerm;56822;52.516;4.708;2023-08-20T00:22:03;42.16;39.28;45.43;;
69616;Laerm;56822;52.516;4.708;2023-08-20T00:22:13;40.74;37.29;44.88;;
69616;Laerm;56822;52.516;4.708;2023-08-20T00:22:25;40.39;38.35;42.92;;
69616;Laerm;56822;52.516;4.708;2023-08-20T00:22:36;40.76;38.04;45.11;;
69616;Laerm;56822;52.516;4.708;2023-08-20T00:22:46;39.86;37.12;43.20;;
69616;Laerm;56822;52.516;4.708;2023-08-20T00:22:57;38.03;35.69;40.30;;
69616;Laerm;56822;52.516;4.708;2023-08-20T00:23:07;40.46;36.27;44.56;;
69616;Laerm;56822;52.516;4.708;2023-08-20T00:23:18;40.64;37.76;44.06;;
69616;Laerm;56822;52.516;4.708;2023-08-20T00:23:28;40.68;37.45;45.73;;
69616;Laerm;56822;52.516;4.708;2023-08-20T00:23:38;40.00;36.17;45.46;;
69616;Laerm;56822;52.516;4.708;2023-08-20T00:23:49;40.45;36.85;43.58;;
69616;Laerm;56822;52.516;4.708;2023-08-20T00:23:59;40.41;35.93;44.36;;
69616;Laerm;56822;52.516;4.708;2023-08-20T00:24:10;37.69;35.10;41.83;;
69616;Laerm;56822;52.516;4.708;2023-08-20T00:24:20;38.59;35.29;41.47;;
69616;Laerm;56822;52.516;4.708;2023-08-20T00:24:31;40.19;35.34;59.02;;
69616;Laerm;56822;52.516;4.708;2023-08-20T00:24:41;36.75;33.73;39.35;;
69616;Laerm;56822;52.516;4.708;2023-08-20T00:24:52;37.25;34.39;40.64;;
69616;Laerm;56822;52.516;4.708;2023-08-20T00:25:03;39.67;35.47;43.67;;
69616;Laerm;56822;52.516;4.708;2023-08-20T00:25:15;43.35;39.63;46.35;;
69616;Laerm;56822;52.516;4.708;2023-08-20T00:25:27;41.36;36.85;44.46;;
69616;Laerm;56822;52.516;4.708;2023-08-20T00:25:37;45.49;40.25;50.13;;
69616;Laerm;56822;52.516;4.708;2023-08-20T00:25:48;50.37;45.59;55.09;;
69616;Laerm;56822;52.516;4.708;2023-08-20T00:25:58;51.89;46.79;56.29;;
69616;Laerm;56822;52.516;4.708;2023-08-20T00:26:09;49.29;42.28;53.88;;
69616;Laerm;56822;52.516;4.708;2023-08-20T00:26:20;46.15;38.58;54.31;;
69616;Laerm;56822;52.516;4.708;2023-08-20T00:26:31;40.65;37.42;43.96;;
69616;Laerm;56822;52.516;4.708;2023-08-20T00:26:41;40.15;37.39;43.53;;
69616;Laerm;56822;52.516;4.708;2023-08-20T00:26:51;41.74;38.08;45.38;;
69616;Laerm;56822;52.516;4.708;2023-08-20T00:27:02;39.13;36.36;41.66;;
69616;Laerm;56822;52.516;4.708;2023-08-20T00:27:12;37.63;35.39;40.54;;
69616;Laerm;56822;52.516;4.708;2023-08-20T00:27:23;38.79;36.11;41.09;;
69616;Laerm;56822;52.516;4.708;2023-08-20T00:27:33;40.84;37.76;44.33;;
69616;Laerm;56822;52.516;4.708;2023-08-20T00:27:43;39.31;35.68;43.70;;
69616;Laerm;56822;52.516;4.708;2023-08-20T00:27:54;39.26;35.55;42.85;;
69616;Laerm;56822;52.516;4.708;2023-08-20T00:28:04;39.66;36.89;44.71;;
69616;Laerm;56822;52.516;4.708;2023-08-20T00:28:14;38.95;35.66;42.91;;
69616;Laerm;56822;52.516;4.708;2023-08-20T00:28:25;38.49;35.44;42.19;;
69616;Laerm;56822;52.516;4.708;2023-08-20T00:28:35;41.03;36.98;44.36;;
69616;Laerm;56822;52.516;4.708;2023-08-20T00:28:48;43.06;39.88;46.07;;
69616;Laerm;56822;52.516;4.708;2023-08-20T00:28:59;43.31;40.21;46.95;;
69616;Laerm;56822;52.516;4.708;2023-08-20T00:29:09;45.41;40.86;50.83;;
69616;Laerm;56822;52.516;4.708;2023-08-20T00:29:19;50.42;46.09;55.55;;
69616;Laerm;56822;52.516;4.708;2023-08-20T00:29:29;51.22;47.46;53.89;;
69616;Laerm;56822;52.516;4.708;2023-08-20T00:29:40;48.01;43.34;54.98;;
69616;Laerm;56822;52.516;4.708;2023-08-20T00:29:50;45.29;39.42;49.91;;
69616;Laerm;56822;52.516;4.708;2023-08-20T00:30:00;40.02;37.39;43.86;;
69616;Laerm;56822;52.516;4.708;2023-08-20T00:30:11;39.40;36.08;42.92;;
69616;Laerm;56822;52.516;4.708;2023-08-20T00:30:21;40.64;38.06;43.27;;
69616;Laerm;56822;52.516;4.708;2023-08-20T00:30:32;39.14;36.28;42.04;;
69616;Laerm;56822;52.516;4.708;2023-08-20T00:30:42;37.94;35.93;40.74;;
69616;Laerm;56822;52.516;4.708;2023-08-20T00:30:53;39.86;35.97;44.19;;
69616;Laerm;56822;52.516;4.708;2023-08-20T00:31:03;41.26;38.26;45.86;;
69616;Laerm;56822;52.516;4.708;2023-08-20T00:31:13;39.62;36.18;44.23;;
69616;Laerm;56822;52.516;4.708;2023-08-20T00:31:24;37.55;35.21;39.58;;
69616;Laerm;56822;52.516;4.708;2023-08-20T00:31:34;38.36;34.95;44.00;;
69616;Laerm;56822;52.516;4.708;2023-08-20T00:31:44;39.83;36.49;43.54;;
69616;Laerm;56822;52.516;4.708;2023-08-20T00:31:55;39.41;35.76;43.28;;
69616;Laerm;56822;52.516;4.708;2023-08-20T00:32:05;40.83;37.51;45.04;;
69616;Laerm;56822;52.516;4.708;2023-08-20T00:32:15;39.73;36.12;44.00;;
69616;Laerm;56822;52.516;4.708;2023-08-20T00:32:26;38.73;35.88;41.52;;
69616;Laerm;56822;52.516;4.708;2023-08-20T00:32:36;40.23;37.38;42.96;;
69616;Laerm;56822;52.516;4.708;2023-08-20T00:32:46;37.91;35.25;41.11;;
69616;Laerm;56822;52.516;4.708;2023-08-20T00:32:57;38.97;35.74;41.43;;
69616;Laerm;56822;52.516;4.708;2023-08-20T00:33:07;40.59;37.42;43.55;;
69616;Laerm;56822;52.516;4.708;2023-08-20T00:33:17;42.11;39.09;45.21;;
69616;Laerm;56822;52.516;4.708;2023-08-20T00:33:28;39.24;36.82;41.74;;
69616;Laerm;56822;52.516;4.708;2023-08-20T00:33:38;39.73;36.01;42.69;;
69616;Laerm;56822;52.516;4.708;2023-08-20T00:33:49;36.42;34.34;45.65;;
69616;Laerm;56822;52.516;4.708;2023-08-20T00:33:59;37.31;34.44;40.50;;
69616;Laerm;56822;52.516;4.708;2023-08-20T00:34:09;37.02;34.09;39.30;;
69616;Laerm;56822;52.516;4.708;2023-08-20T00:34:19;35.65;32.69;38.44;;
69616;Laerm;56822;52.516;4.708;2023-08-20T00:34:29;35.20;32.95;37.33;;
69616;Laerm;56822;52.516;4.708;2023-08-20T00:34:40;37.07;32.70;43.09;;
69616;Laerm;56822;52.516;4.708;2023-08-20T00:34:50;37.67;34.64;40.47;;
69616;Laerm;56822;52.516;4.708;2023-08-20T00:35:00;37.50;33.34;41.13;;
69616;Laerm;56822;52.516;4.708;2023-08-20T00:35:13;36.48;32.52;40.60;;
69616;Laerm;56822;52.516;4.708;2023-08-20T00:35:24;35.48;32.85;38.23;;
69616;Laerm;56822;52.516;4.708;2023-08-20T00:35:35;40.64;35.43;46.98;;
69616;Laerm;56822;52.516;4.708;2023-08-20T00:35:45;38.79;36.27;47.06;;
69616;Laerm;56822;52.516;4.708;2023-08-20T00:35:55;39.42;36.05;43.71;;
69616;Laerm;56822;52.516;4.708;2023-08-20T00:36:05;38.87;35.41;43.10;;
69616;Laerm;56822;52.516;4.708;2023-08-20T00:36:16;38.46;36.11;42.37;;
69616;Laerm;56822;52.516;4.708;2023-08-20T00:36:26;37.14;33.67;42.42;;
69616;Laerm;56822;52.516;4.708;2023-08-20T00:36:36;37.58;34.80;41.09;;
69616;Laerm;56822;52.516;4.708;2023-08-20T00:36:47;35.75;32.99;38.49;;
69616;Laerm;56822;52.516;4.708;2023-08-20T00:36:57;36.13;33.82;39.24;;
69616;Laerm;56822;52.516;4.708;2023-08-20T00:37:07;35.54;33.56;42.79;;
69616;Laerm;56822;52.516;4.708;2023-08-20T00:37:18;38.40;34.89;42.45;;
69616;Laerm;56822;52.516;4.708;2023-08-20T00:37:28;37.96;35.80;40.90;;
69616;Laerm;56822;52.516;4.708;2023-08-20T00:37:39;38.31;35.52;41.42;;
69616;Laerm;56822;52.516;4.708;2023-08-20T00:37:49;37.34;34.91;39.51;;
69616;Laerm;56822;52.516;4.708;2023-08-20T00:38:00;36.03;34.24;38.09;;
69616;Laerm;56822;52.516;4.708;2023-08-20T00:38:10;36.46;33.40;39.93;;
69616;Laerm;56822;52.516;4.708;2023-08-20T00:38:20;36.16;33.93;38.22;;
69616;Laerm;56822;52.516;4.708;2023-08-20T00:38:31;38.05;34.74;41.74;;
69616;Laerm;56822;52.516;4.708;2023-08-20T00:38:41;38.60;35.78;41.14;;
69616;Laerm;56822;52.516;4.708;2023-08-20T00:38:51;41.16;37.33;45.50;;
69616;Laerm;56822;52.516;4.708;2023-08-20T00:39:02;41.63;37.98;46.17;;
69616;Laerm;56822;52.516;4.708;2023-08-20T00:39:12;41.69;39.35;44.21;;
69616;Laerm;56822;52.516;4.708;2023-08-20T00:39:23;46.32;40.56;50.78;;
69616;Laerm;56822;52.516;4.708;2023-08-20T00:39:33;49.53;45.88;52.38;;
69616;Laerm;56822;52.516;4.708;2023-08-20T00:39:43;48.61;43.31;52.35;;
69616;Laerm;56822;52.516;4.708;2023-08-20T00:39:54;48.65;40.56;53.53;;
69616;Laerm;56822;52.516;4.708;2023-08-20T00:40:04;43.27;36.84;50.75;;
69616;Laerm;56822;52.516;4.708;2023-08-20T00:40:15;36.93;33.63;41.39;;
69616;Laerm;56822;52.516;4.708;2023-08-20T00:40:25;36.20;33.30;39.49;;
69616;Laerm;56822;52.516;4.708;2023-08-20T00:40:35;40.56;36.72;50.03;;
69616;Laerm;56822;52.516;4.708;2023-08-20T00:40:46;38.58;35.07;42.92;;
69616;Laerm;56822;52.516;4.708;2023-08-20T00:40:56;36.11;33.00;38.64;;
69616;Laerm;56822;52.516;4.708;2023-08-20T00:41:06;36.41;32.24;39.69;;
69616;Laerm;56822;52.516;4.708;2023-08-20T00:41:17;37.15;33.97;40.80;;
69616;Laerm;56822;52.516;4.708;2023-08-20T00:41:27;37.08;34.91;39.38;;
69616;Laerm;56822;52.516;4.708;2023-08-20T00:41:40;38.26;34.13;42.60;;
69616;Laerm;56822;52.516;4.708;2023-08-20T00:41:51;38.78;35.97;42.09;;
69616;Laerm;56822;52.516;4.708;2023-08-20T00:42:01;38.25;35.62;41.05;;
69616;Laerm;56822;52.516;4.708;2023-08-20T00:42:12;39.20;36.71;41.31;;
69616;Laerm;56822;52.516;4.708;2023-08-20T00:42:24;38.67;36.20;41.42;;
69616;Laerm;56822;52.516;4.708;2023-08-20T00:42:37;36.92;34.23;39.84;;
69616;Laerm;56822;52.516;4.708;2023-08-20T00:42:48;34.30;31.69;38.07;;
69616;Laerm;56822;52.516;4.708;2023-08-20T00:42:58;34.59;32.10;37.41;;
69616;Laerm;56822;52.516;4.708;2023-08-20T00:43:09;37.50;33.78;40.60;;
69616;Laerm;56822;52.516;4.708;2023-08-20T00:43:19;36.91;34.02;41.14;;
69616;Laerm;56822;52.516;4.708;2023-08-20T00:43:29;37.59;34.34;41.63;;
69616;Laerm;56822;52.516;4.708;2023-08-20T00:43:39;39.44;36.42;42.89;;
69616;Laerm;56822;52.516;4.708;2023-08-20T00:43:50;37.82;34.80;41.59;;
69616;Laerm;56822;52.516;4.708;2023-08-20T00:44:00;39.74;37.44;42.67;;
69616;Laerm;56822;52.516;4.708;2023-08-20T00:44:10;39.72;36.63;42.31;;
69616;Laerm;56822;52.516;4.708;2023-08-20T00:44:21;38.37;35.58;43.39;;
69616;Laerm;56822;52.516;4.708;2023-08-20T00:44:31;37.33;33.64;40.98;;
69616;Laerm;56822;52.516;4.708;2023-08-20T00:44:42;42.64;34.26;48.89;;
69616;Laerm;56822;52.516;4.708;2023-08-20T00:44:54;40.17;33.90;46.41;;
69616;Laerm;56822;52.516;4.708;2023-08-20T00:45:05;35.80;33.15;38.34;;
69616;Laerm;56822;52.516;4.708;2023-08-20T00:45:15;39.69;35.84;41.75;;
69616;Laerm;56822;52.516;4.708;2023-08-20T00:45:26;40.85;36.26;44.94;;
69616;Laerm;56822;52.516;4.708;2023-08-20T00:45:37;40.40;37.83;43.41;;
69616;Laerm;56822;52.516;4.708;2023-08-20T00:45:47;40.32;38.03;42.25;;
69616;Laerm;56822;52.516;4.708;2023-08-20T00:45:58;38.75;35.58;41.58;;
69616;Laerm;56822;52.516;4.708;2023-08-20T00:46:09;38.08;34.96;44.17;;
69616;Laerm;56822;52.516;4.708;2023-08-20T00:46:20;36.47;33.00;41.74;;
69616;Laerm;56822;52.516;4.708;2023-08-20T00:46:30;35.14;32.59;38.30;;
69616;Laerm;56822;52.516;4.708;2023-08-20T00:46:40;36.82;34.72;38.88;;
69616;Laerm;56822;52.516;4.708;2023-08-20T00:46:51;38.79;35.89;41.51;;
69616;Laerm;56822;52.516;4.708;2023-08-20T00:47:01;39.52;36.77;42.48;;
69616;Laerm;56822;52.516;4.708;2023-08-20T00:47:13;40.05;36.49;43.25;;
69616;Laerm;56822;52.516;4.708;2023-08-20T00:47:24;39.61;36.59;45.02;;
69616;Laerm;56822;52.516;4.708;2023-08-20T00:47:34;38.38;35.99;41.21;;
69616;Laerm;56822;52.516;4.708;2023-08-20T00:47:45;40.48;38.05;43.04;;
69616;Laerm;56822;52.516;4.708;2023-08-20T00:47:56;39.68;36.45;42.73;;
69616;Laerm;56822;52.516;4.708;2023-08-20T00:48:06;37.41;35.18;40.11;;
69616;Laerm;56822;52.516;4.708;2023-08-20T00:48:17;37.67;34.72;40.63;;
69616;Laerm;56822;52.516;4.708;2023-08-20T00:48:27;38.14;34.95;41.69;;
69616;Laerm;56822;52.516;4.708;2023-08-20T00:48:38;39.50;37.15;41.77;;
69616;Laerm;56822;52.516;4.708;2023-08-20T00:48:48;40.79;37.89;43.36;;
69616;Laerm;56822;52.516;4.708;2023-08-20T00:48:58;41.67;38.13;45.30;;
69616;Laerm;56822;52.516;4.708;2023-08-20T00:49:09;38.76;36.05;41.85;;
69616;Laerm;56822;52.516;4.708;2023-08-20T00:49:19;39.54;36.34;42.94;;
69616;Laerm;56822;52.516;4.708;2023-08-20T00:49:31;39.36;35.80;44.70;;
69616;Laerm;56822;52.516;4.708;2023-08-20T00:49:41;38.60;34.16;43.54;;
69616;Laerm;56822;52.516;4.708;2023-08-20T00:49:52;40.41;36.24;44.53;;
69616;Laerm;56822;52.516;4.708;2023-08-20T00:50:02;37.65;34.15;42.84;;
69616;Laerm;56822;52.516;4.708;2023-08-20T00:50:16;36.41;33.08;39.72;;
69616;Laerm;56822;52.516;4.708;2023-08-20T00:50:27;37.00;34.18;39.80;;
69616;Laerm;56822;52.516;4.708;2023-08-20T00:50:37;36.95;34.39;39.60;;
69616;Laerm;56822;52.516;4.708;2023-08-20T00:50:49;39.35;35.73;44.50;;
69616;Laerm;56822;52.516;4.708;2023-08-20T00:50:59;40.88;36.12;45.37;;
69616;Laerm;56822;52.516;4.708;2023-08-20T00:51:09;42.07;38.48;45.66;;
69616;Laerm;56822;52.516;4.708;2023-08-20T00:51:20;37.88;34.18;40.90;;
69616;Laerm;56822;52.516;4.708;2023-08-20T00:51:32;33.45;31.43;36.15;;
69616;Laerm;56822;52.516;4.708;2023-08-20T00:51:43;36.87;31.95;41.84;;
69616;Laerm;56822;52.516;4.708;2023-08-20T00:51:53;39.84;36.73;42.36;;
69616;Laerm;56822;52.516;4.708;2023-08-20T00:52:04;40.32;36.29;43.07;;
69616;Laerm;56822;52.516;4.708;2023-08-20T00:52:15;40.41;38.02;43.59;;
69616;Laerm;56822;52.516;4.708;2023-08-20T00:52:26;39.32;36.60;41.82;;
69616;Laerm;56822;52.516;4.708;2023-08-20T00:52:36;39.47;36.80;43.76;;
69616;Laerm;56822;52.516;4.708;2023-08-20T00:52:47;39.47;36.34;42.09;;
69616;Laerm;56822;52.516;4.708;2023-08-20T00:52:58;37.58;33.89;40.96;;
69616;Laerm;56822;52.516;4.708;2023-08-20T00:53:09;33.93;31.88;35.97;;
69616;Laerm;56822;52.516;4.708;2023-08-20T00:53:20;34.30;31.82;36.81;;
69616;Laerm;56822;52.516;4.708;2023-08-20T00:53:31;36.58;32.82;39.24;;
69616;Laerm;56822;52.516;4.708;2023-08-20T00:53:41;38.79;36.03;41.83;;
69616;Laerm;56822;52.516;4.708;2023-08-20T00:53:52;39.03;36.06;45.93;;
69616;Laerm;56822;52.516;4.708;2023-08-20T00:54:02;38.41;34.75;41.31;;
69616;Laerm;56822;52.516;4.708;2023-08-20T00:54:13;39.21;36.43;42.56;;
69616;Laerm;56822;52.516;4.708;2023-08-20T00:54:23;39.99;36.34;43.07;;
69616;Laerm;56822;52.516;4.708;2023-08-20T00:54:33;38.33;35.79;42.04;;
69616;Laerm;56822;52.516;4.708;2023-08-20T00:54:44;38.49;34.61;43.16;;
69616;Laerm;56822;52.516;4.708;2023-08-20T00:54:56;42.81;38.54;46.33;;
69616;Laerm;56822;52.516;4.708;2023-08-20T00:55:08;42.75;38.30;45.75;;
69616;Laerm;56822;52.516;4.708;2023-08-20T00:55:19;39.06;36.04;42.81;;
69616;Laerm;56822;52.516;4.708;2023-08-20T00:55:30;39.87;36.73;43.37;;
69616;Laerm;56822;52.516;4.708;2023-08-20T00:55:41;40.71;38.69;43.87;;
69616;Laerm;56822;52.516;4.708;2023-08-20T00:55:52;41.01;37.43;44.95;;
69616;Laerm;56822;52.516;4.708;2023-08-20T00:56:03;40.52;37.66;44.60;;
69616;Laerm;56822;52.516;4.708;2023-08-20T00:56:13;37.95;34.58;41.07;;
69616;Laerm;56822;52.516;4.708;2023-08-20T00:56:23;39.08;35.76;42.06;;
69616;Laerm;56822;52.516;4.708;2023-08-20T00:56:34;38.94;36.32;41.19;;
69616;Laerm;56822;52.516;4.708;2023-08-20T00:56:44;38.93;35.09;42.97;;
69616;Laerm;56822;52.516;4.708;2023-08-20T00:56:55;39.33;35.61;44.17;;
69616;Laerm;56822;52.516;4.708;2023-08-20T00:57:06;39.40;35.54;44.38;;
69616;Laerm;56822;52.516;4.708;2023-08-20T00:57:19;38.02;35.16;41.62;;
69616;Laerm;56822;52.516;4.708;2023-08-20T00:57:30;39.02;35.45;42.24;;
69616;Laerm;56822;52.516;4.708;2023-08-20T00:57:40;40.42;36.51;44.98;;
69616;Laerm;56822;52.516;4.708;2023-08-20T00:57:51;39.94;36.93;43.47;;
69616;Laerm;56822;52.516;4.708;2023-08-20T00:58:01;40.91;37.75;44.44;;
69616;Laerm;56822;52.516;4.708;2023-08-20T00:58:12;39.50;35.32;42.95;;
69616;Laerm;56822;52.516;4.708;2023-08-20T00:58:22;37.86;34.82;41.11;;
69616;Laerm;56822;52.516;4.708;2023-08-20T00:58:32;37.52;34.49;40.88;;
69616;Laerm;56822;52.516;4.708;2023-08-20T00:58:43;36.89;33.77;39.81;;
69616;Laerm;56822;52.516;4.708;2023-08-20T00:58:54;38.84;35.51;42.24;;
69616;Laerm;56822;52.516;4.708;2023-08-20T00:59:05;39.90;35.88;44.07;;
69616;Laerm;56822;52.516;4.708;2023-08-20T00:59:16;37.10;34.45;40.72;;
69616;Laerm;56822;52.516;4.708;2023-08-20T00:59:26;33.70;30.80;36.76;;
69616;Laerm;56822;52.516;4.708;2023-08-20T00:59:37;32.50;30.79;34.68;;
69616;Laerm;56822;52.516;4.708;2023-08-20T00:59:47;32.51;30.23;35.04;;
69616;Laerm;56822;52.516;4.708;2023-08-20T01:00:01;33.79;30.08;36.94;;
69616;Laerm;56822;52.516;4.708;2023-08-20T01:00:14;35.28;32.45;40.60;;
69616;Laerm;56822;52.516;4.708;2023-08-20T01:00:25;37.20;33.42;41.68;;
69616;Laerm;56822;52.516;4.708;2023-08-20T01:00:36;37.54;34.75;39.68;;
69616;Laerm;56822;52.516;4.708;2023-08-20T01:00:46;35.32;32.42;38.25;;